sensor_id;sensor_type;location;lat;lon;timestamp;P1;durP1;ratioP1;P2;durP2;ratioP2
60700;SDS011;46541;49.894;10.886;2022-08-25T00:01:55;14.30;;;9.82;;
60700;SDS011;46541;49.894;10.886;2022-08-25T00:04:25;11.50;;;9.27;;
60700;SDS011;46541;49.894;10.886;2022-08-25T00:06:53;13.90;;;8.70;;
60700;SDS011;46541;49.894;10.886;2022-08-25T00:09:27;13.45;;;8.27;;
60700;SDS011;46541;49.894;10.886;2022-08-25T00:11:54;11.50;;;8.68;;
60700;SDS011;46541;49.894;10.886;2022-08-25T00:14:23;13.90;;;9.27;;
60700;SDS011;46541;49.894;10.886;2022-08-25T00:16:55;12.02;;;8.90;;
60700;SDS011;46541;49.894;10.886;2022-08-25T00:19:24;12.43;;;9.10;;
60700;SDS011;46541;49.894;10.886;2022-08-25T00:21:54;13.25;;;9.25;;
60700;SDS011;46541;49.894;10.886;2022-08-25T00:24:21;12.88;;;9.68;;
60700;SDS011;46541;49.894;10.886;2022-08-25T00:26:50;10.65;;;8.27;;
60700;SDS011;46541;49.894;10.886;2022-08-25T00:29:20;10.55;;;8.43;;
60700;SDS011;46541;49.894;10.886;2022-08-25T00:31:51;10.68;;;9.02;;
60700;SDS011;46541;49.894;10.886;2022-08-25T00:34:20;13.05;;;9.43;;
60700;SDS011;46541;49.894;10.886;2022-08-25T00:36:49;14.45;;;9.32;;
60700;SDS011;46541;49.894;10.886;2022-08-25T00:39:17;13.68;;;9.13;;
60700;SDS011;46541;49.894;10.886;2022-08-25T00:41:47;12.68;;;8.43;;
60700;SDS011;46541;49.894;10.886;2022-08-25T00:44:15;10.73;;;9.13;;
60700;SDS011;46541;49.894;10.886;2022-08-25T00:46:46;13.43;;;9.63;;
60700;SDS011;46541;49.894;10.886;2022-08-25T00:49:20;10.48;;;9.07;;
60700;SDS011;46541;49.894;10.886;2022-08-25T00:54:32;11.45;;;10.25;;
60700;SDS011;46541;49.894;10.886;2022-08-25T00:57:06;14.10;;;9.93;;
60700;SDS011;46541;49.894;10.886;2022-08-25T00:59:35;13.68;;;9.65;;
60700;SDS011;46541;49.894;10.886;2022-08-25T01:02:03;13.80;;;10.23;;
60700;SDS011;46541;49.894;10.886;2022-08-25T01:04:35;13.60;;;9.88;;
60700;SDS011;46541;49.894;10.886;2022-08-25T01:07:02;12.18;;;10.25;;
60700;SDS011;46541;49.894;10.886;2022-08-25T01:09:30;12.05;;;10.32;;
60700;SDS011;46541;49.894;10.886;2022-08-25T01:11:58;17.00;;;11.93;;
60700;SDS011;46541;49.894;10.886;2022-08-25T01:14:26;13.30;;;10.48;;
60700;SDS011;46541;49.894;10.886;2022-08-25T01:16:56;14.70;;;10.07;;
60700;SDS011;46541;49.894;10.886;2022-08-25T01:19:25;11.10;;;9.05;;
60700;SDS011;46541;49.894;10.886;2022-08-25T01:21:53;15.05;;;10.10;;
60700;SDS011;46541;49.894;10.886;2022-08-25T01:24:25;14.95;;;10.07;;
60700;SDS011;46541;49.894;10.886;2022-08-25T01:27:09;12.73;;;9.77;;
60700;SDS011;46541;49.894;10.886;2022-08-25T01:29:37;13.93;;;10.13;;
60700;SDS011;46541;49.894;10.886;2022-08-25T01:32:06;15.00;;;11.05;;
60700;SDS011;46541;49.894;10.886;2022-08-25T01:34:36;12.18;;;9.48;;
60700;SDS011;46541;49.894;10.886;2022-08-25T01:37:07;14.98;;;9.93;;
60700;SDS011;46541;49.894;10.886;2022-08-25T01:39:38;13.00;;;10.48;;
60700;SDS011;46541;49.894;10.886;2022-08-25T01:42:08;11.63;;;9.85;;
60700;SDS011;46541;49.894;10.886;2022-08-25T01:44:44;12.55;;;10.10;;
60700;SDS011;46541;49.894;10.886;2022-08-25T01:47:13;13.90;;;10.75;;
60700;SDS011;46541;49.894;10.886;2022-08-25T01:49:40;14.30;;;9.65;;
60700;SDS011;46541;49.894;10.886;2022-08-25T01:54:49;12.18;;;10.52;;
60700;SDS011;46541;49.894;10.886;2022-08-25T01:57:16;13.27;;;10.15;;
60700;SDS011;46541;49.894;10.886;2022-08-25T01:59:43;13.05;;;10.30;;
60700;SDS011;46541;49.894;10.886;2022-08-25T02:02:10;16.20;;;10.07;;
60700;SDS011;46541;49.894;10.886;2022-08-25T02:04:37;15.80;;;9.98;;
60700;SDS011;46541;49.894;10.886;2022-08-25T02:07:07;14.48;;;9.82;;
60700;SDS011;46541;49.894;10.886;2022-08-25T02:09:35;11.82;;;10.13;;
60700;SDS011;46541;49.894;10.886;2022-08-25T02:12:03;16.27;;;11.38;;
60700;SDS011;46541;49.894;10.886;2022-08-25T02:14:30;14.68;;;10.70;;
60700;SDS011;46541;49.894;10.886;2022-08-25T02:16:57;17.85;;;10.50;;
60700;SDS011;46541;49.894;10.886;2022-08-25T02:19:24;13.55;;;9.95;;
60700;SDS011;46541;49.894;10.886;2022-08-25T02:21:52;15.95;;;10.00;;
60700;SDS011;46541;49.894;10.886;2022-08-25T02:24:19;16.40;;;10.05;;
60700;SDS011;46541;49.894;10.886;2022-08-25T02:26:46;16.30;;;10.38;;
60700;SDS011;46541;49.894;10.886;2022-08-25T02:29:13;12.18;;;9.85;;
60700;SDS011;46541;49.894;10.886;2022-08-25T02:31:42;15.23;;;10.05;;
60700;SDS011;46541;49.894;10.886;2022-08-25T02:34:09;16.23;;;10.63;;
60700;SDS011;46541;49.894;10.886;2022-08-25T02:36:36;15.90;;;10.52;;
60700;SDS011;46541;49.894;10.886;2022-08-25T02:39:05;11.55;;;10.35;;
60700;SDS011;46541;49.894;10.886;2022-08-25T02:41:34;13.55;;;10.15;;
60700;SDS011;46541;49.894;10.886;2022-08-25T02:44:02;12.52;;;10.23;;
60700;SDS011;46541;49.894;10.886;2022-08-25T02:46:29;13.05;;;9.85;;
60700;SDS011;46541;49.894;10.886;2022-08-25T02:48:56;13.65;;;10.15;;
60700;SDS011;46541;49.894;10.886;2022-08-25T02:51:24;15.07;;;10.93;;
60700;SDS011;46541;49.894;10.886;2022-08-25T02:53:55;14.02;;;10.38;;
60700;SDS011;46541;49.894;10.886;2022-08-25T02:56:23;15.20;;;12.13;;
60700;SDS011;46541;49.894;10.886;2022-08-25T02:58:52;16.13;;;11.48;;
60700;SDS011;46541;49.894;10.886;2022-08-25T03:01:19;16.23;;;11.43;;
60700;SDS011;46541;49.894;10.886;2022-08-25T03:03:53;15.38;;;10.98;;
60700;SDS011;46541;49.894;10.886;2022-08-25T03:06:21;15.68;;;11.07;;
60700;SDS011;46541;49.894;10.886;2022-08-25T03:08:49;13.27;;;11.13;;
60700;SDS011;46541;49.894;10.886;2022-08-25T03:11:17;18.98;;;11.23;;
60700;SDS011;46541;49.894;10.886;2022-08-25T03:13:45;17.58;;;10.95;;
60700;SDS011;46541;49.894;10.886;2022-08-25T03:16:14;16.52;;;12.05;;
60700;SDS011;46541;49.894;10.886;2022-08-25T03:18:41;17.75;;;11.65;;
60700;SDS011;46541;49.894;10.886;2022-08-25T03:21:09;15.35;;;11.65;;
60700;SDS011;46541;49.894;10.886;2022-08-25T03:23:37;13.77;;;11.25;;
60700;SDS011;46541;49.894;10.886;2022-08-25T03:26:05;19.48;;;11.32;;
60700;SDS011;46541;49.894;10.886;2022-08-25T03:28:50;16.08;;;10.77;;
60700;SDS011;46541;49.894;10.886;2022-08-25T03:31:17;16.35;;;11.43;;
60700;SDS011;46541;49.894;10.886;2022-08-25T03:33:44;14.60;;;11.82;;
60700;SDS011;46541;49.894;10.886;2022-08-25T03:36:11;15.52;;;11.20;;
60700;SDS011;46541;49.894;10.886;2022-08-25T03:38:38;15.43;;;12.43;;
60700;SDS011;46541;49.894;10.886;2022-08-25T03:41:10;15.00;;;11.95;;
60700;SDS011;46541;49.894;10.886;2022-08-25T03:43:41;15.30;;;11.30;;
60700;SDS011;46541;49.894;10.886;2022-08-25T03:46:14;15.52;;;11.82;;
60700;SDS011;46541;49.894;10.886;2022-08-25T03:48:47;15.63;;;11.63;;
60700;SDS011;46541;49.894;10.886;2022-08-25T03:51:22;13.85;;;11.00;;
60700;SDS011;46541;49.894;10.886;2022-08-25T03:53:50;13.43;;;11.43;;
60700;SDS011;46541;49.894;10.886;2022-08-25T03:56:18;15.70;;;10.93;;
60700;SDS011;46541;49.894;10.886;2022-08-25T03:58:45;15.02;;;12.07;;
60700;SDS011;46541;49.894;10.886;2022-08-25T04:01:13;15.98;;;11.45;;
60700;SDS011;46541;49.894;10.886;2022-08-25T04:03:43;15.68;;;11.07;;
60700;SDS011;46541;49.894;10.886;2022-08-25T04:06:10;16.35;;;12.25;;
60700;SDS011;46541;49.894;10.886;2022-08-25T04:08:37;16.30;;;11.13;;
60700;SDS011;46541;49.894;10.886;2022-08-25T04:11:08;13.80;;;11.32;;
60700;SDS011;46541;49.894;10.886;2022-08-25T04:13:38;17.27;;;11.20;;
60700;SDS011;46541;49.894;10.886;2022-08-25T04:16:10;18.70;;;12.25;;
60700;SDS011;46541;49.894;10.886;2022-08-25T04:18:40;18.85;;;11.90;;
60700;SDS011;46541;49.894;10.886;2022-08-25T04:21:07;17.25;;;12.73;;
60700;SDS011;46541;49.894;10.886;2022-08-25T04:23:37;17.27;;;12.82;;
60700;SDS011;46541;49.894;10.886;2022-08-25T04:26:25;18.52;;;12.00;;
60700;SDS011;46541;49.894;10.886;2022-08-25T04:28:57;16.25;;;11.68;;
60700;SDS011;46541;49.894;10.886;2022-08-25T04:31:26;14.90;;;12.13;;
60700;SDS011;46541;49.894;10.886;2022-08-25T04:33:55;14.80;;;11.77;;
60700;SDS011;46541;49.894;10.886;2022-08-25T04:36:22;17.50;;;13.50;;
60700;SDS011;46541;49.894;10.886;2022-08-25T04:38:49;18.05;;;13.75;;
60700;SDS011;46541;49.894;10.886;2022-08-25T04:41:17;18.08;;;12.68;;
60700;SDS011;46541;49.894;10.886;2022-08-25T04:43:46;17.80;;;12.18;;
60700;SDS011;46541;49.894;10.886;2022-08-25T04:46:20;16.42;;;12.93;;
60700;SDS011;46541;49.894;10.886;2022-08-25T04:48:51;17.83;;;12.50;;
60700;SDS011;46541;49.894;10.886;2022-08-25T04:51:20;16.80;;;12.20;;
60700;SDS011;46541;49.894;10.886;2022-08-25T04:53:51;14.82;;;11.38;;
60700;SDS011;46541;49.894;10.886;2022-08-25T04:56:22;17.55;;;12.35;;
60700;SDS011;46541;49.894;10.886;2022-08-25T04:58:53;15.93;;;12.85;;
60700;SDS011;46541;49.894;10.886;2022-08-25T05:01:22;15.98;;;12.13;;
60700;SDS011;46541;49.894;10.886;2022-08-25T05:03:57;15.10;;;12.50;;
60700;SDS011;46541;49.894;10.886;2022-08-25T05:08:54;17.98;;;12.25;;
60700;SDS011;46541;49.894;10.886;2022-08-25T05:11:22;19.13;;;13.05;;
60700;SDS011;46541;49.894;10.886;2022-08-25T05:13:51;18.25;;;12.70;;
60700;SDS011;46541;49.894;10.886;2022-08-25T05:16:20;14.98;;;11.88;;
60700;SDS011;46541;49.894;10.886;2022-08-25T05:18:49;15.63;;;12.10;;
60700;SDS011;46541;49.894;10.886;2022-08-25T05:21:18;18.83;;;11.85;;
60700;SDS011;46541;49.894;10.886;2022-08-25T05:23:48;14.05;;;12.23;;
60700;SDS011;46541;49.894;10.886;2022-08-25T05:26:18;17.45;;;13.23;;
60700;SDS011;46541;49.894;10.886;2022-08-25T05:28:48;16.85;;;12.45;;
60700;SDS011;46541;49.894;10.886;2022-08-25T05:31:16;19.77;;;13.77;;
60700;SDS011;46541;49.894;10.886;2022-08-25T05:33:43;18.45;;;13.07;;
60700;SDS011;46541;49.894;10.886;2022-08-25T05:36:10;16.15;;;12.13;;
60700;SDS011;46541;49.894;10.886;2022-08-25T05:38:39;15.20;;;12.20;;
60700;SDS011;46541;49.894;10.886;2022-08-25T05:41:08;16.05;;;12.85;;
60700;SDS011;46541;49.894;10.886;2022-08-25T05:43:37;23.13;;;13.52;;
60700;SDS011;46541;49.894;10.886;2022-08-25T05:46:05;19.75;;;13.30;;
60700;SDS011;46541;49.894;10.886;2022-08-25T05:48:33;18.48;;;13.27;;
60700;SDS011;46541;49.894;10.886;2022-08-25T05:51:02;15.40;;;12.82;;
60700;SDS011;46541;49.894;10.886;2022-08-25T05:53:31;21.20;;;13.32;;
60700;SDS011;46541;49.894;10.886;2022-08-25T05:55:59;19.55;;;13.45;;
60700;SDS011;46541;49.894;10.886;2022-08-25T05:58:26;18.48;;;13.63;;
60700;SDS011;46541;49.894;10.886;2022-08-25T06:00:55;23.90;;;14.45;;
60700;SDS011;46541;49.894;10.886;2022-08-25T06:03:23;23.00;;;14.07;;
60700;SDS011;46541;49.894;10.886;2022-08-25T06:05:50;21.25;;;14.38;;
60700;SDS011;46541;49.894;10.886;2022-08-25T06:08:17;19.30;;;14.10;;
60700;SDS011;46541;49.894;10.886;2022-08-25T06:10:44;19.77;;;13.05;;
60700;SDS011;46541;49.894;10.886;2022-08-25T06:13:16;17.77;;;13.82;;
60700;SDS011;46541;49.894;10.886;2022-08-25T06:15:56;21.58;;;14.15;;
60700;SDS011;46541;49.894;10.886;2022-08-25T06:18:24;22.48;;;13.48;;
60700;SDS011;46541;49.894;10.886;2022-08-25T06:20:50;19.77;;;12.73;;
60700;SDS011;46541;49.894;10.886;2022-08-25T06:23:17;20.42;;;12.73;;
60700;SDS011;46541;49.894;10.886;2022-08-25T06:25:48;19.63;;;14.48;;
60700;SDS011;46541;49.894;10.886;2022-08-25T06:28:16;19.83;;;14.60;;
60700;SDS011;46541;49.894;10.886;2022-08-25T06:30:43;20.10;;;13.55;;
60700;SDS011;46541;49.894;10.886;2022-08-25T06:33:11;18.27;;;13.32;;
60700;SDS011;46541;49.894;10.886;2022-08-25T06:35:41;19.30;;;14.43;;
60700;SDS011;46541;49.894;10.886;2022-08-25T06:38:09;20.42;;;15.18;;
60700;SDS011;46541;49.894;10.886;2022-08-25T06:40:36;23.33;;;13.82;;
60700;SDS011;46541;49.894;10.886;2022-08-25T06:43:03;21.00;;;14.13;;
60700;SDS011;46541;49.894;10.886;2022-08-25T06:45:34;20.23;;;13.43;;
60700;SDS011;46541;49.894;10.886;2022-08-25T06:48:00;25.52;;;14.68;;
60700;SDS011;46541;49.894;10.886;2022-08-25T06:50:28;20.10;;;13.63;;
60700;SDS011;46541;49.894;10.886;2022-08-25T06:52:54;16.67;;;13.32;;
60700;SDS011;46541;49.894;10.886;2022-08-25T06:55:22;19.00;;;13.70;;
60700;SDS011;46541;49.894;10.886;2022-08-25T06:57:51;21.17;;;14.10;;
60700;SDS011;46541;49.894;10.886;2022-08-25T07:00:20;18.77;;;13.60;;
60700;SDS011;46541;49.894;10.886;2022-08-25T07:02:55;18.75;;;13.32;;
60700;SDS011;46541;49.894;10.886;2022-08-25T07:05:22;19.88;;;14.60;;
60700;SDS011;46541;49.894;10.886;2022-08-25T07:08:05;20.40;;;14.35;;
60700;SDS011;46541;49.894;10.886;2022-08-25T07:10:32;20.75;;;13.55;;
60700;SDS011;46541;49.894;10.886;2022-08-25T07:13:01;19.92;;;12.77;;
60700;SDS011;46541;49.894;10.886;2022-08-25T07:15:28;17.27;;;12.93;;
60700;SDS011;46541;49.894;10.886;2022-08-25T07:17:56;20.67;;;12.15;;
60700;SDS011;46541;49.894;10.886;2022-08-25T07:20:23;21.58;;;13.20;;
60700;SDS011;46541;49.894;10.886;2022-08-25T07:22:54;17.67;;;13.10;;
60700;SDS011;46541;49.894;10.886;2022-08-25T07:25:22;18.50;;;12.63;;
60700;SDS011;46541;49.894;10.886;2022-08-25T07:27:49;23.98;;;13.60;;
60700;SDS011;46541;49.894;10.886;2022-08-25T07:30:22;21.02;;;12.95;;
60700;SDS011;46541;49.894;10.886;2022-08-25T07:32:49;17.33;;;13.43;;
60700;SDS011;46541;49.894;10.886;2022-08-25T07:35:20;17.13;;;12.45;;
60700;SDS011;46541;49.894;10.886;2022-08-25T07:37:52;18.08;;;12.60;;
60700;SDS011;46541;49.894;10.886;2022-08-25T07:40:33;15.95;;;11.77;;
60700;SDS011;46541;49.894;10.886;2022-08-25T07:43:08;16.35;;;11.18;;
60700;SDS011;46541;49.894;10.886;2022-08-25T07:45:36;15.07;;;10.55;;
60700;SDS011;46541;49.894;10.886;2022-08-25T07:48:14;16.02;;;10.98;;
60700;SDS011;46541;49.894;10.886;2022-08-25T07:50:46;14.75;;;10.55;;
60700;SDS011;46541;49.894;10.886;2022-08-25T07:53:14;15.00;;;10.38;;
60700;SDS011;46541;49.894;10.886;2022-08-25T07:55:42;11.32;;;10.07;;
60700;SDS011;46541;49.894;10.886;2022-08-25T07:58:12;11.23;;;9.68;;
60700;SDS011;46541;49.894;10.886;2022-08-25T08:00:39;15.82;;;10.65;;
60700;SDS011;46541;49.894;10.886;2022-08-25T08:03:08;12.38;;;10.27;;
60700;SDS011;46541;49.894;10.886;2022-08-25T08:05:49;13.07;;;10.40;;
60700;SDS011;46541;49.894;10.886;2022-08-25T08:08:16;10.23;;;9.25;;
60700;SDS011;46541;49.894;10.886;2022-08-25T08:10:44;15.93;;;10.95;;
60700;SDS011;46541;49.894;10.886;2022-08-25T08:13:29;19.90;;;11.77;;
60700;SDS011;46541;49.894;10.886;2022-08-25T08:16:10;13.25;;;10.23;;
60700;SDS011;46541;49.894;10.886;2022-08-25T08:18:38;13.55;;;9.80;;
60700;SDS011;46541;49.894;10.886;2022-08-25T08:21:09;10.80;;;9.32;;
60700;SDS011;46541;49.894;10.886;2022-08-25T08:23:45;13.98;;;11.27;;
60700;SDS011;46541;49.894;10.886;2022-08-25T08:26:14;22.05;;;15.30;;
60700;SDS011;46541;49.894;10.886;2022-08-25T08:28:41;19.10;;;12.80;;
60700;SDS011;46541;49.894;10.886;2022-08-25T08:31:08;12.85;;;10.38;;
60700;SDS011;46541;49.894;10.886;2022-08-25T08:33:36;17.95;;;12.60;;
60700;SDS011;46541;49.894;10.886;2022-08-25T08:36:08;15.38;;;10.45;;
60700;SDS011;46541;49.894;10.886;2022-08-25T08:38:38;12.32;;;10.77;;
60700;SDS011;46541;49.894;10.886;2022-08-25T08:44:40;12.40;;;9.38;;
60700;SDS011;46541;49.894;10.886;2022-08-25T08:52:44;11.88;;;8.82;;
60700;SDS011;46541;49.894;10.886;2022-08-25T08:57:59;15.65;;;9.90;;
60700;SDS011;46541;49.894;10.886;2022-08-25T09:00:30;9.95;;;8.85;;
60700;SDS011;46541;49.894;10.886;2022-08-25T09:03:04;11.57;;;8.63;;
60700;SDS011;46541;49.894;10.886;2022-08-25T09:05:35;12.07;;;8.63;;
60700;SDS011;46541;49.894;10.886;2022-08-25T09:08:12;11.65;;;7.80;;
60700;SDS011;46541;49.894;10.886;2022-08-25T09:11:29;12.55;;;8.65;;
60700;SDS011;46541;49.894;10.886;2022-08-25T09:28:12;11.70;;;7.78;;
60700;SDS011;46541;49.894;10.886;2022-08-25T09:31:04;11.45;;;8.07;;
60700;SDS011;46541;49.894;10.886;2022-08-25T09:33:42;12.30;;;8.45;;
60700;SDS011;46541;49.894;10.886;2022-08-25T09:36:09;8.57;;;7.68;;
60700;SDS011;46541;49.894;10.886;2022-08-25T09:38:36;10.50;;;7.55;;
60700;SDS011;46541;49.894;10.886;2022-08-25T09:41:03;11.10;;;7.65;;
60700;SDS011;46541;49.894;10.886;2022-08-25T09:43:33;11.60;;;7.63;;
60700;SDS011;46541;49.894;10.886;2022-08-25T09:46:08;9.82;;;7.05;;
60700;SDS011;46541;49.894;10.886;2022-08-25T09:48:43;11.48;;;7.95;;
60700;SDS011;46541;49.894;10.886;2022-08-25T09:51:32;9.00;;;6.95;;
60700;SDS011;46541;49.894;10.886;2022-08-25T10:02:43;11.48;;;8.02;;
60700;SDS011;46541;49.894;10.886;2022-08-25T10:04:54;12.07;;;7.47;;
60700;SDS011;46541;49.894;10.886;2022-08-25T10:07:23;12.45;;;7.57;;
60700;SDS011;46541;49.894;10.886;2022-08-25T10:12:29;8.32;;;7.25;;
60700;SDS011;46541;49.894;10.886;2022-08-25T10:15:21;8.32;;;7.05;;
60700;SDS011;46541;49.894;10.886;2022-08-25T10:17:56;7.68;;;6.65;;
60700;SDS011;46541;49.894;10.886;2022-08-25T10:20:42;10.23;;;8.38;;
60700;SDS011;46541;49.894;10.886;2022-08-25T10:23:13;8.35;;;7.43;;
60700;SDS011;46541;49.894;10.886;2022-08-25T10:25:42;9.05;;;6.50;;
60700;SDS011;46541;49.894;10.886;2022-08-25T10:50:09;8.88;;;6.40;;
60700;SDS011;46541;49.894;10.886;2022-08-25T10:53:00;12.85;;;10.40;;
60700;SDS011;46541;49.894;10.886;2022-08-25T11:04:14;8.80;;;5.95;;
60700;SDS011;46541;49.894;10.886;2022-08-25T11:09:49;8.52;;;6.15;;
60700;SDS011;46541;49.894;10.886;2022-08-25T11:12:29;7.18;;;5.18;;
60700;SDS011;46541;49.894;10.886;2022-08-25T11:15:01;8.63;;;6.43;;
60700;SDS011;46541;49.894;10.886;2022-08-25T11:20:44;6.78;;;5.63;;
60700;SDS011;46541;49.894;10.886;2022-08-25T11:23:22;10.90;;;7.07;;
60700;SDS011;46541;49.894;10.886;2022-08-25T11:25:54;9.57;;;8.05;;
60700;SDS011;46541;49.894;10.886;2022-08-25T11:28:46;9.23;;;7.32;;
60700;SDS011;46541;49.894;10.886;2022-08-25T11:31:19;6.80;;;5.93;;
60700;SDS011;46541;49.894;10.886;2022-08-25T11:33:48;8.85;;;5.93;;
60700;SDS011;46541;49.894;10.886;2022-08-25T11:52:40;9.60;;;6.78;;
60700;SDS011;46541;49.894;10.886;2022-08-25T11:57:41;7.47;;;5.45;;
60700;SDS011;46541;49.894;10.886;2022-08-25T12:00:37;6.80;;;5.93;;
60700;SDS011;46541;49.894;10.886;2022-08-25T12:06:13;7.25;;;5.75;;
60700;SDS011;46541;49.894;10.886;2022-08-25T12:08:48;9.15;;;5.97;;
60700;SDS011;46541;49.894;10.886;2022-08-25T12:21:58;8.13;;;6.57;;
60700;SDS011;46541;49.894;10.886;2022-08-25T12:35:18;10.20;;;7.25;;
60700;SDS011;46541;49.894;10.886;2022-08-25T12:40:33;7.90;;;5.82;;
60700;SDS011;46541;49.894;10.886;2022-08-25T12:45:46;8.57;;;7.38;;
60700;SDS011;46541;49.894;10.886;2022-08-25T12:50:58;9.63;;;7.50;;
60700;SDS011;46541;49.894;10.886;2022-08-25T12:56:05;8.68;;;7.55;;
60700;SDS011;46541;49.894;10.886;2022-08-25T13:16:18;6.45;;;5.75;;
60700;SDS011;46541;49.894;10.886;2022-08-25T13:18:54;8.10;;;6.43;;
60700;SDS011;46541;49.894;10.886;2022-08-25T13:21:37;10.05;;;5.68;;
60700;SDS011;46541;49.894;10.886;2022-08-25T13:24:08;5.63;;;4.57;;
60700;SDS011;46541;49.894;10.886;2022-08-25T13:26:42;5.90;;;5.00;;
60700;SDS011;46541;49.894;10.886;2022-08-25T13:30:15;7.63;;;5.22;;
60700;SDS011;46541;49.894;10.886;2022-08-25T13:32:24;9.60;;;5.43;;
60700;SDS011;46541;49.894;10.886;2022-08-25T13:35:16;7.25;;;5.75;;
60700;SDS011;46541;49.894;10.886;2022-08-25T13:37:47;9.80;;;7.18;;
60700;SDS011;46541;49.894;10.886;2022-08-25T13:40:27;11.48;;;8.82;;
60700;SDS011;46541;49.894;10.886;2022-08-25T13:43:01;8.85;;;7.47;;
60700;SDS011;46541;49.894;10.886;2022-08-25T13:45:31;9.40;;;7.22;;
60700;SDS011;46541;49.894;10.886;2022-08-25T13:48:07;7.85;;;6.25;;
60700;SDS011;46541;49.894;10.886;2022-08-25T13:50:47;10.60;;;6.93;;
60700;SDS011;46541;49.894;10.886;2022-08-25T13:53:21;8.20;;;6.65;;
60700;SDS011;46541;49.894;10.886;2022-08-25T13:55:52;12.63;;;7.18;;
60700;SDS011;46541;49.894;10.886;2022-08-25T13:58:24;8.23;;;7.13;;
60700;SDS011;46541;49.894;10.886;2022-08-25T14:01:12;8.15;;;7.22;;
60700;SDS011;46541;49.894;10.886;2022-08-25T14:07:04;9.32;;;5.47;;
60700;SDS011;46541;49.894;10.886;2022-08-25T14:09:37;6.95;;;5.80;;
60700;SDS011;46541;49.894;10.886;2022-08-25T14:12:24;7.72;;;5.90;;
60700;SDS011;46541;49.894;10.886;2022-08-25T14:17:44;6.80;;;5.75;;
60700;SDS011;46541;49.894;10.886;2022-08-25T14:20:21;7.38;;;5.55;;
60700;SDS011;46541;49.894;10.886;2022-08-25T14:22:55;9.55;;;6.32;;
60700;SDS011;46541;49.894;10.886;2022-08-25T14:25:30;7.72;;;6.68;;
60700;SDS011;46541;49.894;10.886;2022-08-25T14:28:01;11.00;;;6.90;;
60700;SDS011;46541;49.894;10.886;2022-08-25T14:30:33;10.95;;;7.22;;
60700;SDS011;46541;49.894;10.886;2022-08-25T14:33:02;14.52;;;9.15;;
60700;SDS011;46541;49.894;10.886;2022-08-25T14:35:32;14.40;;;8.35;;
60700;SDS011;46541;49.894;10.886;2022-08-25T14:38:00;7.97;;;6.97;;
60700;SDS011;46541;49.894;10.886;2022-08-25T14:40:34;8.45;;;7.57;;
60700;SDS011;46541;49.894;10.886;2022-08-25T14:43:01;8.95;;;7.57;;
60700;SDS011;46541;49.894;10.886;2022-08-25T14:45:39;9.55;;;7.43;;
60700;SDS011;46541;49.894;10.886;2022-08-25T14:48:09;9.02;;;6.28;;
60700;SDS011;46541;49.894;10.886;2022-08-25T14:50:39;11.75;;;8.48;;
60700;SDS011;46541;49.894;10.886;2022-08-25T14:53:08;10.30;;;9.15;;
60700;SDS011;46541;49.894;10.886;2022-08-25T14:55:36;21.35;;;13.60;;
60700;SDS011;46541;49.894;10.886;2022-08-25T14:58:05;10.55;;;8.93;;
60700;SDS011;46541;49.894;10.886;2022-08-25T15:00:36;11.80;;;8.50;;
60700;SDS011;46541;49.894;10.886;2022-08-25T15:03:13;13.97;;;6.90;;
60700;SDS011;46541;49.894;10.886;2022-08-25T15:05:43;9.82;;;7.43;;
60700;SDS011;46541;49.894;10.886;2022-08-25T15:08:10;10.18;;;8.15;;
60700;SDS011;46541;49.894;10.886;2022-08-25T15:10:58;9.40;;;7.13;;
60700;SDS011;46541;49.894;10.886;2022-08-25T15:13:25;10.40;;;7.43;;
60700;SDS011;46541;49.894;10.886;2022-08-25T15:15:53;11.35;;;7.50;;
60700;SDS011;46541;49.894;10.886;2022-08-25T15:18:23;8.70;;;7.20;;
60700;SDS011;46541;49.894;10.886;2022-08-25T15:20:51;10.20;;;6.10;;
60700;SDS011;46541;49.894;10.886;2022-08-25T15:23:18;10.63;;;6.72;;
60700;SDS011;46541;49.894;10.886;2022-08-25T15:25:47;9.38;;;6.07;;
60700;SDS011;46541;49.894;10.886;2022-08-25T15:28:18;10.18;;;7.25;;
60700;SDS011;46541;49.894;10.886;2022-08-25T15:30:47;9.68;;;6.75;;
60700;SDS011;46541;49.894;10.886;2022-08-25T15:33:15;12.02;;;6.57;;
60700;SDS011;46541;49.894;10.886;2022-08-25T15:35:42;11.43;;;7.47;;
60700;SDS011;46541;49.894;10.886;2022-08-25T15:38:10;12.90;;;6.28;;
60700;SDS011;46541;49.894;10.886;2022-08-25T15:40:38;9.85;;;7.10;;
60700;SDS011;46541;49.894;10.886;2022-08-25T15:43:05;10.55;;;7.25;;
60700;SDS011;46541;49.894;10.886;2022-08-25T15:45:33;10.30;;;7.20;;
60700;SDS011;46541;49.894;10.886;2022-08-25T15:48:01;18.25;;;8.57;;
60700;SDS011;46541;49.894;10.886;2022-08-25T15:50:32;11.50;;;8.38;;
60700;SDS011;46541;49.894;10.886;2022-08-25T15:52:59;11.30;;;8.82;;
60700;SDS011;46541;49.894;10.886;2022-08-25T15:55:26;11.57;;;7.32;;
60700;SDS011;46541;49.894;10.886;2022-08-25T15:57:54;12.60;;;9.00;;
60700;SDS011;46541;49.894;10.886;2022-08-25T16:00:20;11.95;;;8.25;;
60700;SDS011;46541;49.894;10.886;2022-08-25T16:02:48;12.30;;;8.88;;
60700;SDS011;46541;49.894;10.886;2022-08-25T16:05:15;11.07;;;8.32;;
60700;SDS011;46541;49.894;10.886;2022-08-25T16:07:42;15.93;;;12.68;;
60700;SDS011;46541;49.894;10.886;2022-08-25T16:10:11;12.18;;;9.02;;
60700;SDS011;46541;49.894;10.886;2022-08-25T16:12:38;14.80;;;9.82;;
60700;SDS011;46541;49.894;10.886;2022-08-25T16:15:08;10.43;;;7.28;;
60700;SDS011;46541;49.894;10.886;2022-08-25T16:17:37;10.23;;;8.25;;
60700;SDS011;46541;49.894;10.886;2022-08-25T16:20:08;10.07;;;7.22;;
60700;SDS011;46541;49.894;10.886;2022-08-25T16:22:39;9.05;;;6.78;;
60700;SDS011;46541;49.894;10.886;2022-08-25T16:25:06;8.48;;;6.90;;
60700;SDS011;46541;49.894;10.886;2022-08-25T16:27:33;10.02;;;6.97;;
60700;SDS011;46541;49.894;10.886;2022-08-25T16:30:04;11.88;;;7.10;;
60700;SDS011;46541;49.894;10.886;2022-08-25T16:32:33;10.48;;;7.00;;
60700;SDS011;46541;49.894;10.886;2022-08-25T16:35:00;14.32;;;10.48;;
60700;SDS011;46541;49.894;10.886;2022-08-25T16:37:28;10.38;;;7.68;;
60700;SDS011;46541;49.894;10.886;2022-08-25T16:39:55;12.77;;;6.75;;
60700;SDS011;46541;49.894;10.886;2022-08-25T16:42:24;10.18;;;7.75;;
60700;SDS011;46541;49.894;10.886;2022-08-25T16:44:53;13.38;;;8.63;;
60700;SDS011;46541;49.894;10.886;2022-08-25T16:47:20;8.32;;;6.68;;
60700;SDS011;46541;49.894;10.886;2022-08-25T16:49:52;14.05;;;8.00;;
60700;SDS011;46541;49.894;10.886;2022-08-25T16:52:19;12.63;;;7.93;;
60700;SDS011;46541;49.894;10.886;2022-08-25T16:57:40;9.98;;;6.78;;
60700;SDS011;46541;49.894;10.886;2022-08-25T17:00:10;9.25;;;7.28;;
60700;SDS011;46541;49.894;10.886;2022-08-25T17:02:40;9.95;;;6.75;;
60700;SDS011;46541;49.894;10.886;2022-08-25T17:05:08;12.07;;;8.35;;
60700;SDS011;46541;49.894;10.886;2022-08-25T17:07:36;9.25;;;7.38;;
60700;SDS011;46541;49.894;10.886;2022-08-25T17:10:03;9.23;;;6.75;;
60700;SDS011;46541;49.894;10.886;2022-08-25T17:12:32;13.40;;;10.95;;
60700;SDS011;46541;49.894;10.886;2022-08-25T17:14:59;10.57;;;9.38;;
60700;SDS011;46541;49.894;10.886;2022-08-25T17:17:26;8.05;;;7.20;;
60700;SDS011;46541;49.894;10.886;2022-08-25T17:19:56;10.38;;;7.35;;
60700;SDS011;46541;49.894;10.886;2022-08-25T17:22:23;9.93;;;7.53;;